Time;durP1;ratioP1;P1;durP2;ratioP2;P2;SDS_P1;SDS_P2;PMS_P1;PMS_P2;Temp;Humidity;BMP_temperature;BMP_pressure;BME280_temperature;BME280_humidity;BME280_pressure;Samples;Min_cycle;Max_cycle;Signal;HPM_P1;HPM_P2
2023/03/29 00:00:39;;;;;;;29.00;8.45;;;;;;;6.80;61.50;101062.81;4948397;27;20454;-63
2023/03/29 00:03:09;;;;;;;28.55;7.43;;;;;;;6.88;61.35;101063.75;4949674;27;20078;-62
2023/03/29 00:05:40;;;;;;;25.48;7.70;;;;;;;6.87;61.17;101059.44;4948567;27;20378;-62
2023/03/29 00:08:17;;;;;;;32.70;8.15;;;;;;;6.75;60.82;101051.50;4948271;27;20266;-63
2023/03/29 00:10:50;;;;;;;26.70;7.50;;;;;;;6.64;60.98;101053.06;4937560;27;20381;-63
2023/03/29 00:13:23;;;;;;;31.02;7.95;;;;;;;6.69;61.59;101051.44;4948558;27;20060;-62
2023/03/29 00:15:54;;;;;;;28.20;8.27;;;;;;;6.82;61.32;101048.13;4957546;27;20049;-62
2023/03/29 00:18:24;;;;;;;34.45;8.55;;;;;;;6.83;61.10;101044.66;4962499;27;20052;-62
2023/03/29 00:20:59;;;;;;;29.15;9.07;;;;;;;6.85;60.85;101034.28;4969474;27;20104;-62
2023/03/29 00:23:30;;;;;;;27.83;8.57;;;;;;;6.98;60.75;101048.28;4956236;28;20126;-62
2023/03/29 00:26:01;;;;;;;26.02;7.10;;;;;;;6.93;60.96;101049.97;4957515;28;20071;-62
2023/03/29 00:28:36;;;;;;;30.10;8.18;;;;;;;7.02;61.03;101050.06;4950724;27;20059;-62
2023/03/29 00:31:08;;;;;;;30.90;8.77;;;;;;;6.84;61.12;101025.63;4955266;28;20461;-62
2023/03/29 00:33:40;;;;;;;29.88;7.97;;;;;;;7.10;60.40;101048.41;4954929;27;20075;-62
2023/03/29 00:36:12;;;;;;;22.73;7.38;;;;;;;7.15;60.26;101046.72;4955663;28;20043;-63
2023/03/29 00:38:42;;;;;;;32.28;8.75;;;;;;;7.24;60.28;101045.94;4956571;28;20040;-63
2023/03/29 00:41:13;;;;;;;30.50;7.38;;;;;;;7.21;60.33;101041.56;4956258;28;20120;-63
2023/03/29 00:43:57;;;;;;;23.90;7.00;;;;;;;7.26;60.32;101029.53;4963869;28;20095;-63
2023/03/29 00:46:28;;;;;;;35.45;9.07;;;;;;;7.30;60.39;101041.69;4946702;28;20483;-63
2023/03/29 00:49:03;;;;;;;32.65;8.20;;;;;;;7.33;59.56;101041.69;4956280;28;20047;-63
2023/03/29 00:51:37;;;;;;;30.92;7.55;;;;;;;7.25;59.54;101022.56;4952159;27;20714;-63
2023/03/29 00:54:14;;;;;;;26.20;7.18;;;;;;;7.47;59.77;101033.16;4956481;27;20040;-63
2023/03/29 00:56:48;;;;;;;31.48;8.07;;;;;;;7.54;59.72;101027.16;4947025;27;20051;-64
2023/03/29 00:59:25;;;;;;;30.83;7.43;;;;;;;7.55;59.60;101021.97;4956107;28;20035;-64
2023/03/29 01:02:00;;;;;;;21.70;6.65;;;;;;;7.46;59.55;101015.81;4947584;28;20051;-64
2023/03/29 01:04:37;;;;;;;33.20;8.93;;;;;;;7.41;59.70;100996.69;4957419;28;20043;-64
2023/03/29 01:07:12;;;;;;;39.65;9.35;;;;;;;7.50;59.69;101013.25;4946325;28;20047;-65
2023/03/29 01:09:48;;;;;;;38.65;9.20;;;;;;;7.54;59.83;101008.97;4953418;28;20120;-64
2023/03/29 01:12:25;;;;;;;34.63;8.73;;;;;;;7.55;59.54;101015.91;4957208;28;20051;-64
2023/03/29 01:15:03;;;;;;;37.67;8.68;;;;;;;7.59;59.54;101009.88;4957919;28;20108;-64
2023/03/29 01:17:33;;;;;;;33.20;10.23;;;;;;;7.67;59.15;101010.78;4952737;28;20086;-64
2023/03/29 01:20:13;;;;;;;33.83;12.25;;;;;;;7.47;59.03;100982.03;4960601;28;20089;-63
2023/03/29 01:22:59;;;;;;;37.80;8.55;;;;;;;7.80;58.93;100995.28;4953217;27;20057;-64
2023/03/29 01:25:37;;;;;;;37.35;8.52;;;;;;;7.74;58.79;101001.31;4944884;28;20128;-63
2023/03/29 01:28:12;;;;;;;34.03;9.88;;;;;;;7.81;58.46;100997.88;4956273;28;20035;-64
2023/03/29 01:30:49;;;;;;;27.77;8.02;;;;;;;7.72;58.70;100996.09;4963096;28;20044;-64
2023/03/29 01:33:23;;;;;;;30.20;8.77;;;;;;;7.73;58.49;101000.41;4944012;28;20166;-67
2023/03/29 01:36:03;;;;;;;27.58;8.07;;;;;;;7.62;58.61;100965.66;4949514;28;20045;-65
2023/03/29 01:38:41;;;;;;;34.47;7.60;;;;;;;7.74;58.24;100976.16;4946140;28;20041;-65
2023/03/29 01:41:12;;;;;;;31.33;7.93;;;;;;;7.77;58.41;100960.56;4951459;28;20093;-64
2023/03/29 01:43:48;;;;;;;29.45;7.93;;;;;;;8.00;58.48;100975.44;4949033;28;20054;-66
2023/03/29 01:46:26;;;;;;;33.42;7.50;;;;;;;8.03;58.42;100959.84;4952185;28;20036;-68
2023/03/29 01:49:00;;;;;;;21.30;7.78;;;;;;;8.22;57.98;100971.22;4940934;28;20362;-67
2023/03/29 01:51:36;;;;;;;20.65;7.50;;;;;;;8.19;57.38;100964.25;4949617;28;20063;-64
2023/03/29 01:54:12;;;;;;;27.65;7.65;;;;;;;8.16;57.58;100951.25;4934694;28;20051;-66
2023/03/29 01:56:45;;;;;;;37.10;7.15;;;;;;;8.33;57.39;100955.63;4945406;28;20126;-66
2023/03/29 01:59:22;;;;;;;26.60;7.72;;;;;;;8.35;57.17;100946.09;4935163;28;20056;-60
2023/03/29 02:01:57;;;;;;;22.40;7.57;;;;;;;8.20;56.89;100949.50;4945099;28;20128;-65
2023/03/29 02:04:33;;;;;;;33.03;8.63;;;;;;;8.15;57.40;100931.25;4946624;28;20432;-65
2023/03/29 02:07:06;;;;;;;31.55;8.15;;;;;;;8.27;57.15;100950.41;4941210;28;20094;-65
2023/03/29 02:09:38;;;;;;;32.53;8.55;;;;;;;8.35;56.87;100943.50;4946646;28;20051;-64
2023/03/29 02:12:10;;;;;;;34.42;8.68;;;;;;;8.24;57.16;100932.16;4947087;28;20047;-64
2023/03/29 02:14:43;;;;;;;23.67;8.00;;;;;;;8.38;57.14;100927.88;4946331;28;20675;-67
2023/03/29 02:17:24;;;;;;;22.42;7.95;;;;;;;8.43;56.81;100936.59;4952804;28;20091;-65
2023/03/29 02:19:59;;;;;;;29.27;7.93;;;;;;;8.47;57.03;100932.28;4942805;27;20051;-64
2023/03/29 02:22:37;;;;;;;28.98;7.88;;;;;;;8.45;56.69;100921.84;4949448;27;20063;-65
2023/03/29 02:25:10;;;;;;;30.05;7.68;;;;;;;8.51;56.91;100927.09;4938472;27;20051;-65
2023/03/29 02:27:41;;;;;;;35.00;7.68;;;;;;;8.54;56.62;100914.06;4949934;27;20063;-65
2023/03/29 02:30:16;;;;;;;28.08;7.30;;;;;;;8.48;56.79;100911.44;4950668;27;20083;-65
2023/03/29 02:32:52;;;;;;;25.65;7.32;;;;;;;8.49;56.39;100921.00;4938064;27;20495;-65
2023/03/29 02:35:33;;;;;;;32.97;8.50;;;;;;;8.24;56.73;100872.28;4945861;27;20053;-64
2023/03/29 02:38:07;;;;;;;23.02;7.75;;;;;;;8.41;56.15;100891.44;4945792;27;20206;-64
2023/03/29 02:40:40;;;;;;;33.33;7.97;;;;;;;8.59;56.13;100904.53;4949249;27;20048;-65
2023/03/29 02:43:14;;;;;;;29.50;9.13;;;;;;;8.33;56.03;100861.91;4949976;27;20067;-65
2023/03/29 02:45:48;;;;;;;31.05;7.85;;;;;;;8.65;55.87;100895.84;4942271;27;20484;-64
2023/03/29 02:48:21;;;;;;;31.58;7.45;;;;;;;8.56;56.01;100870.66;4949406;27;20098;-64
2023/03/29 02:50:55;;;;;;;29.80;7.20;;;;;;;8.73;56.05;100888.03;4948569;27;20058;-64
2023/03/29 02:53:30;;;;;;;25.77;8.00;;;;;;;8.72;55.58;100870.69;4939406;27;20051;-64
2023/03/29 02:56:02;;;;;;;26.90;7.15;;;;;;;8.82;55.35;100888.06;4948688;27;20432;-65
2023/03/29 02:58:33;;;;;;;26.52;7.30;;;;;;;8.84;54.98;100886.34;4948141;27;20057;-65
2023/03/29 03:01:06;;;;;;;28.52;7.30;;;;;;;8.89;55.22;100883.75;4955356;27;21247;-64
2023/03/29 03:03:37;;;;;;;26.48;7.20;;;;;;;8.97;55.05;100877.63;4948731;27;20527;-63
2023/03/29 03:06:08;;;;;;;33.03;8.23;;;;;;;9.03;55.10;100872.41;4949805;27;20371;-64
2023/03/29 03:08:39;;;;;;;26.27;8.45;;;;;;;9.00;54.71;100869.81;4947995;27;20085;-64
2023/03/29 03:11:09;;;;;;;25.45;8.15;;;;;;;9.10;54.72;100867.22;4948022;27;20051;-64
2023/03/29 03:13:40;;;;;;;25.05;7.75;;;;;;;8.93;54.75;100839.41;4951009;27;20039;-65
2023/03/29 03:16:12;;;;;;;26.27;6.95;;;;;;;9.03;54.51;100861.97;4949494;27;20047;-65
2023/03/29 03:18:44;;;;;;;32.47;7.97;;;;;;;8.99;54.32;100857.66;4948128;27;20056;-64
2023/03/29 03:21:15;;;;;;;31.00;8.35;;;;;;;9.07;54.50;100858.50;4949079;27;20504;-64
2023/03/29 03:23:46;;;;;;;26.50;7.20;;;;;;;9.03;54.57;100843.72;4948927;27;20461;-64
2023/03/29 03:26:17;;;;;;;27.30;7.90;;;;;;;8.95;54.09;100832.47;4949815;27;20469;-64
2023/03/29 03:28:48;;;;;;;24.15;6.93;;;;;;;8.99;54.51;100844.63;4948805;27;20048;-65
2023/03/29 03:31:20;;;;;;;27.25;7.28;;;;;;;8.99;54.19;100839.41;4949690;27;20055;-65
2023/03/29 03:33:51;;;;;;;29.30;7.55;;;;;;;9.07;54.36;100836.81;4948820;27;20071;-64
2023/03/29 03:36:27;;;;;;;28.65;7.30;;;;;;;9.01;54.29;100835.06;4947781;27;20070;-64
2023/03/29 03:38:58;;;;;;;28.60;7.28;;;;;;;9.06;54.16;100830.72;4937063;27;20090;-64
2023/03/29 03:41:29;;;;;;;32.83;7.90;;;;;;;9.13;54.03;100831.56;4948849;27;20056;-64
2023/03/29 03:43:59;;;;;;;31.55;6.90;;;;;;;8.96;53.68;100812.47;4946829;27;20047;-65
2023/03/29 03:46:34;;;;;;;22.83;8.35;;;;;;;9.09;53.92;100819.41;4949336;27;20052;-64
2023/03/29 03:49:05;;;;;;;19.25;6.18;;;;;;;8.95;53.54;100809.00;4938643;27;20109;-65
2023/03/29 03:51:36;;;;;;;27.08;6.28;;;;;;;8.80;53.41;100776.00;4949017;27;20070;-64
2023/03/29 03:54:06;;;;;;;29.58;7.38;;;;;;;9.09;53.39;100818.56;4948766;27;20112;-64
2023/03/29 03:56:37;;;;;;;30.15;6.70;;;;;;;9.11;53.17;100806.38;4947943;27;20051;-65
2023/03/29 03:59:08;;;;;;;29.90;8.20;;;;;;;9.10;53.37;100804.63;4948066;27;20047;-65
2023/03/29 04:01:42;;;;;;;27.52;7.43;;;;;;;9.14;53.64;100790.75;4948377;27;20054;-64
2023/03/29 04:04:13;;;;;;;31.48;6.50;;;;;;;9.17;53.62;100795.94;4947373;27;20096;-65
2023/03/29 04:06:44;;;;;;;26.40;6.53;;;;;;;9.29;53.10;100790.69;4941984;27;21648;-64
2023/03/29 04:09:15;;;;;;;23.65;6.45;;;;;;;9.22;52.13;100794.19;4948244;27;20047;-64
2023/03/29 04:11:45;;;;;;;27.02;7.35;;;;;;;9.20;52.14;100791.56;4947293;27;20097;-64
2023/03/29 04:14:16;;;;;;;27.00;6.80;;;;;;;9.27;52.22;100795.03;4949271;27;20059;-64
2023/03/29 04:16:48;;;;;;;20.05;6.32;;;;;;;8.90;52.23;100737.78;4948495;27;20055;-63
2023/03/29 04:19:19;;;;;;;29.83;8.48;;;;;;;9.34;51.60;100788.94;4948864;27;20409;-65
2023/03/29 04:21:50;;;;;;;19.08;6.32;;;;;;;9.18;52.12;100787.25;4947328;28;20173;-64
2023/03/29 04:24:24;;;;;;;23.45;6.85;;;;;;;9.10;52.22;100781.19;4947585;27;20049;-65
2023/03/29 04:26:55;;;;;;;20.35;6.10;;;;;;;9.13;52.56;100778.56;4937464;27;20134;-65
2023/03/29 04:29:25;;;;;;;24.17;6.18;;;;;;;9.18;51.73;100779.41;4947835;27;20062;-65
2023/03/29 04:31:58;;;;;;;27.52;7.38;;;;;;;9.04;51.83;100780.31;4947028;28;20043;-65
2023/03/29 04:34:28;;;;;;;26.25;6.88;;;;;;;8.99;52.33;100771.66;4948870;27;20493;-66
2023/03/29 04:36:59;;;;;;;27.33;6.50;;;;;;;8.99;52.54;100771.66;4946681;27;20051;-66
2023/03/29 04:39:33;;;;;;;18.58;6.50;;;;;;;9.05;52.76;100775.97;4946666;27;20055;-66
2023/03/29 04:42:04;;;;;;;29.90;7.05;;;;;;;9.07;52.54;100763.81;4942345;27;20711;-67
2023/03/29 04:44:34;;;;;;;24.45;6.55;;;;;;;9.07;52.42;100769.88;4949849;27;20057;-65
2023/03/29 04:47:06;;;;;;;20.45;7.18;;;;;;;9.09;52.30;100766.41;4948166;27;20073;-65
2023/03/29 04:49:37;;;;;;;18.73;5.63;;;;;;;9.13;52.17;100762.91;4949065;27;20059;-68
2023/03/29 04:52:08;;;;;;;24.33;9.68;;;;;;;9.03;51.98;100762.94;4946605;27;20066;-61
2023/03/29 04:54:38;;;;;;;24.63;6.32;;;;;;;9.07;51.84;100756.84;4947814;28;20123;-62
2023/03/29 04:57:09;;;;;;;29.02;6.85;;;;;;;8.90;51.69;100747.34;4947243;27;20036;-67
2023/03/29 04:59:40;;;;;;;21.58;6.20;;;;;;;8.90;52.02;100756.00;4946559;27;20036;-67
2023/03/29 05:02:12;;;;;;;23.55;6.65;;;;;;;8.62;52.52;100714.38;4946552;27;20046;-66
2023/03/29 05:04:43;;;;;;;34.00;7.70;;;;;;;8.82;52.52;100752.56;4944205;27;20064;-62
2023/03/29 05:07:14;;;;;;;20.88;6.90;;;;;;;8.70;52.26;100716.09;4951737;27;20048;-60
2023/03/29 05:09:45;;;;;;;28.55;5.95;;;;;;;8.89;52.49;100741.25;4946932;27;20162;-61
2023/03/29 05:12:21;;;;;;;25.17;6.75;;;;;;;8.95;52.62;100741.22;4947462;27;20046;-60
2023/03/29 05:15:02;;;;;;;;;;;;;;;8.99;52.48;100740.38;4936913;27;21759;-58
2023/03/29 05:17:41;;;;;;;22.73;7.20;;;;;;;8.89;52.44;100728.22;4940547;28;20750;-60
2023/03/29 05:20:13;;;;;;;28.10;7.32;;;;;;;9.00;52.34;100736.00;4945955;27;20061;-60
2023/03/29 05:22:45;;;;;;;19.83;6.00;;;;;;;8.93;52.84;100735.16;4939827;27;20056;-60
2023/03/29 05:25:18;;;;;;;25.38;6.18;;;;;;;8.95;53.06;100728.19;4949191;27;20043;-59
2023/03/29 05:27:50;;;;;;;19.75;6.65;;;;;;;8.96;53.19;100734.28;4945686;28;20039;-60
2023/03/29 05:30:21;;;;;;;30.55;6.97;;;;;;;8.92;53.20;100729.97;4947224;27;20600;-61
2023/03/29 05:32:54;;;;;;;24.58;7.38;;;;;;;8.49;53.63;100684.00;4946183;28;20466;-61
2023/03/29 05:35:27;;;;;;;29.13;7.63;;;;;;;8.63;53.40;100716.09;4934507;28;20162;-61
2023/03/29 05:37:59;;;;;;;25.65;6.72;;;;;;;8.67;53.35;100726.53;4945899;28;20035;-61
2023/03/29 05:40:31;;;;;;;28.38;6.03;;;;;;;8.64;53.66;100725.66;4947104;28;20052;-61
2023/03/29 05:43:04;;;;;;;24.88;6.95;;;;;;;8.59;53.51;100719.59;4946006;28;20047;-61
2023/03/29 05:45:35;;;;;;;27.50;6.55;;;;;;;8.55;53.48;100717.84;4935127;28;20055;-61
2023/03/29 05:48:09;;;;;;;23.60;6.88;;;;;;;8.60;53.33;100726.50;4945790;28;20047;-59
2023/03/29 05:50:40;;;;;;;19.52;6.43;;;;;;;8.56;53.46;100724.81;4944801;28;20064;-60
2023/03/29 05:53:16;;;;;;;25.83;7.00;;;;;;;8.53;53.97;100714.38;4942836;27;20454;-61
2023/03/29 05:55:47;;;;;;;27.67;7.07;;;;;;;8.50;53.78;100722.19;4950420;27;20047;-62
2023/03/29 05:58:19;;;;;;;30.85;7.45;;;;;;;8.51;54.02;100726.53;4952178;27;20055;-61
2023/03/29 06:00:51;;;;;;;31.05;6.93;;;;;;;8.47;54.19;100724.81;4950110;27;20059;-59
2023/03/29 06:03:26;;;;;;;30.55;7.05;;;;;;;8.33;53.82;100700.47;4950360;27;20050;-61
2023/03/29 06:05:59;;;;;;;25.05;6.00;;;;;;;8.30;54.12;100710.88;4939485;27;20050;-58
2023/03/29 06:08:32;;;;;;;21.75;6.90;;;;;;;8.22;54.23;100713.47;4949763;27;20051;-59
2023/03/29 06:11:07;;;;;;;17.92;7.13;;;;;;;7.67;54.57;100619.78;4946828;27;20057;-61
2023/03/29 06:13:40;;;;;;;23.77;7.03;;;;;;;7.94;54.68;100676.16;4949842;27;20051;-61
2023/03/29 06:16:13;;;;;;;27.00;6.80;;;;;;;8.12;55.19;100710.00;4951151;27;20405;-59
2023/03/29 06:18:46;;;;;;;33.38;6.95;;;;;;;8.09;55.26;100702.19;4944616;27;20121;-58
2023/03/29 06:21:22;;;;;;;35.35;7.53;;;;;;;8.08;55.52;100703.03;4949465;27;20036;-61
2023/03/29 06:23:55;;;;;;;23.88;7.15;;;;;;;8.08;55.10;100695.25;4942706;27;20053;-62
2023/03/29 06:26:27;;;;;;;29.02;7.55;;;;;;;8.07;55.01;100698.72;4949874;27;20044;-61
2023/03/29 06:28:59;;;;;;;27.58;6.68;;;;;;;8.02;55.26;100703.06;4949928;27;20082;-61
2023/03/29 06:31:30;;;;;;;36.55;7.43;;;;;;;7.95;55.52;100704.78;4950417;27;20071;-61
2023/03/29 06:34:03;;;;;;;27.52;7.25;;;;;;;7.94;55.56;100707.41;4949334;27;20051;-62
2023/03/29 06:36:36;;;;;;;20.55;6.63;;;;;;;7.80;55.57;100696.09;4939681;27;20055;-60
2023/03/29 06:39:08;;;;;;;24.48;7.28;;;;;;;7.72;56.53;100703.88;4949966;27;20105;-59
2023/03/29 06:41:40;;;;;;;17.38;7.03;;;;;;;7.66;56.69;100707.34;4950123;27;20039;-62
2023/03/29 06:44:12;;;;;;;22.80;7.05;;;;;;;7.65;56.75;100702.97;4948548;27;20146;-62
2023/03/29 06:46:44;;;;;;;27.33;7.22;;;;;;;7.18;57.25;100641.31;4947161;27;20493;-61
2023/03/29 06:49:17;;;;;;;30.92;8.32;;;;;;;7.60;57.86;100712.50;4950478;27;20465;-59
2023/03/29 06:51:49;;;;;;;23.70;7.32;;;;;;;7.47;57.93;100696.00;4949714;27;20068;-60
2023/03/29 06:54:21;;;;;;;26.25;7.85;;;;;;;7.56;58.30;100706.44;4948835;27;20055;-60
2023/03/29 06:56:52;;;;;;;26.98;8.20;;;;;;;7.48;58.63;100696.88;4948765;27;20450;-59
2023/03/29 06:59:24;;;;;;;27.67;8.70;;;;;;;7.40;57.99;100695.97;4947460;27;20110;-61
2023/03/29 07:01:57;;;;;;;30.45;8.88;;;;;;;7.33;58.41;100702.88;4947723;28;20135;-61
2023/03/29 07:04:31;;;;;;;29.20;8.82;;;;;;;7.30;58.58;100702.88;4948114;27;20334;-61
2023/03/29 07:07:02;;;;;;;28.35;7.90;;;;;;;7.24;58.94;100708.91;4950052;27;20047;-60
2023/03/29 07:09:34;;;;;;;40.40;9.13;;;;;;;6.73;58.95;100634.19;4948957;27;20036;-59
2023/03/29 07:12:05;;;;;;;25.75;9.02;;;;;;;7.09;59.25;100699.31;4938433;27;20138;-61
2023/03/29 07:14:36;;;;;;;32.45;8.90;;;;;;;6.95;59.96;100700.09;4948449;27;20050;-59
2023/03/29 07:17:06;;;;;;;29.25;9.45;;;;;;;7.03;59.77;100709.66;4949226;27;20047;-58
2023/03/29 07:19:39;;;;;;;28.98;8.10;;;;;;;7.00;59.91;100698.41;4948452;27;20051;-61
2023/03/29 07:22:09;;;;;;;29.08;9.18;;;;;;;6.95;60.31;100705.31;4947918;27;20402;-60
2023/03/29 07:24:40;;;;;;;22.33;8.80;;;;;;;6.97;60.52;100724.38;4947454;27;20103;-62
2023/03/29 07:27:11;;;;;;;23.90;7.80;;;;;;;6.85;60.48;100720.81;4949704;27;20059;-61
2023/03/29 07:29:42;;;;;;;28.38;9.02;;;;;;;6.76;60.70;100719.91;4946107;27;20043;-59
2023/03/29 07:32:13;;;;;;;24.58;7.03;;;;;;;6.69;61.15;100713.81;4948181;27;20049;-58
2023/03/29 07:34:46;;;;;;;23.05;7.63;;;;;;;6.66;61.32;100722.47;4957119;27;20493;-61
2023/03/29 07:37:17;;;;;;;27.10;7.38;;;;;;;6.64;61.48;100720.69;4947780;27;20047;-60
2023/03/29 07:39:48;;;;;;;23.30;7.20;;;;;;;6.31;61.41;100670.25;4949319;27;20520;-58
2023/03/29 07:42:19;;;;;;;32.95;7.72;;;;;;;6.60;61.74;100718.94;4948131;27;20469;-61
2023/03/29 07:44:50;;;;;;;18.20;7.13;;;;;;;6.57;61.66;100724.13;4948607;27;20597;-59
2023/03/29 07:47:21;;;;;;;32.13;8.40;;;;;;;6.46;61.91;100711.94;4947909;27;20127;-61
2023/03/29 07:49:53;;;;;;;26.17;7.85;;;;;;;6.39;62.22;100725.72;4947932;27;20064;-61
2023/03/29 07:52:24;;;;;;;27.63;6.97;;;;;;;6.24;62.50;100720.38;4943849;27;20056;-60
2023/03/29 07:54:56;;;;;;;26.77;8.02;;;;;;;6.20;62.99;100731.59;4947718;27;20170;-61
2023/03/29 07:57:27;;;;;;;23.75;6.90;;;;;;;6.02;63.23;100725.38;4946759;27;20140;-60
2023/03/29 07:59:58;;;;;;;20.95;6.88;;;;;;;5.94;63.75;100736.53;4948535;27;20051;-61
2023/03/29 08:02:28;;;;;;;29.35;7.22;;;;;;;5.85;64.02;100726.91;4946514;27;20362;-61
2023/03/29 08:05:00;;;;;;;24.38;8.23;;;;;;;5.80;64.33;100731.16;4945730;27;20077;-58
2023/03/29 08:07:31;;;;;;;21.83;7.93;;;;;;;5.79;64.31;100726.81;4948855;27;20063;-60
2023/03/29 08:10:05;;;;;;;25.52;7.93;;;;;;;5.76;64.62;100734.56;4938214;27;20062;-61
2023/03/29 08:12:39;;;;;;;38.67;8.73;;;;;;;5.35;65.16;100704.75;4946860;27;20051;-59
2023/03/29 08:15:12;;;;;;;31.70;9.30;;;;;;;5.50;65.29;100729.13;4947257;27;20043;-61
2023/03/29 08:17:44;;;;;;;28.80;8.77;;;;;;;5.59;65.71;100740.47;4940449;27;20128;-59
2023/03/29 08:20:17;;;;;;;28.20;9.63;;;;;;;5.30;65.81;100701.22;4948552;27;20454;-61
2023/03/29 08:22:47;;;;;;;28.58;10.25;;;;;;;5.51;66.07;100736.88;4947390;27;20453;-62
2023/03/29 08:25:18;;;;;;;27.73;9.57;;;;;;;5.43;66.67;100743.72;4948664;27;20069;-60
2023/03/29 08:27:48;;;;;;;30.83;10.43;;;;;;;5.41;66.91;100735.03;4947716;27;20050;-58
2023/03/29 08:30:19;;;;;;;32.25;9.85;;;;;;;5.38;67.38;100735.00;4947707;27;20457;-60
2023/03/29 08:32:51;;;;;;;29.75;9.80;;;;;;;5.37;67.49;100741.06;4946425;27;20060;-60
2023/03/29 08:35:25;;;;;;;36.13;9.00;;;;;;;4.68;67.63;100621.88;4942077;27;21400;-60
2023/03/29 08:37:56;;;;;;;27.73;8.25;;;;;;;5.24;67.98;100736.53;4947599;27;20054;-60
2023/03/29 08:40:30;;;;;;;27.25;7.63;;;;;;;5.03;68.63;100717.28;4948124;27;20043;-61
2023/03/29 08:43:20;;;;;;;20.08;7.15;;;;;;;5.10;69.19;100739.84;4929018;27;20059;-60
2023/03/29 08:46:04;;;;;;;34.95;9.02;;;;;;;5.01;69.25;100734.53;4937291;27;20047;-59
2023/03/29 08:48:40;;;;;;;33.55;8.60;;;;;;;4.94;69.53;100738.75;4936716;27;20135;-60
2023/03/29 08:51:20;;;;;;;28.58;7.18;;;;;;;4.93;69.59;100736.13;4945941;27;20047;-59
2023/03/29 08:53:53;;;;;;;;;;;;;;;4.84;69.89;100742.06;4936909;27;20079;-59
2023/03/29 08:56:27;;;;;;;30.50;7.55;;;;;;;4.44;70.16;100688.81;4944165;27;20099;-60
2023/03/29 08:59:01;;;;;;;23.80;7.35;;;;;;;4.76;70.33;100749.69;4946094;27;20055;-60
2023/03/29 09:01:36;;;;;;;24.42;7.70;;;;;;;4.77;70.31;100750.59;4938895;27;20467;-60
2023/03/29 09:04:14;;;;;;;19.42;7.07;;;;;;;4.72;70.01;100753.09;4947124;27;20078;-57
2023/03/29 09:06:59;;;;;;;;;;;;;;;;;;;;;
2023/03/29 09:09:53;;;;;;;27.70;7.75;;;;;;;4.60;70.89;100758.09;4931651;28;20713;-60
2023/03/29 09:12:33;;;;;;;21.65;6.97;;;;;;;4.57;71.08;100754.56;4952357;27;20468;-60
2023/03/29 09:15:18;;;;;;;27.73;7.93;;;;;;;4.59;70.58;100761.50;4936459;28;20051;-59
2023/03/29 09:17:57;;;;;;;26.20;7.03;;;;;;;4.43;70.72;100738.84;4936620;28;20078;-60
2023/03/29 09:20:39;;;;;;;25.90;6.80;;;;;;;4.41;71.48;100753.47;4936833;27;20040;-59
2023/03/29 09:23:46;;;;;;;32.97;8.73;;;;;;;4.39;71.46;100755.16;4936212;28;20054;-61
2023/03/29 09:26:24;;;;;;;29.27;7.78;;;;;;;4.38;72.05;100756.00;4935664;27;20051;-61
2023/03/29 09:29:08;;;;;;;27.75;8.45;;;;;;;4.36;71.81;100749.94;4936885;28;20452;-60
2023/03/29 09:31:43;;;;;;;27.88;7.50;;;;;;;4.31;71.62;100755.88;4935557;28;20047;-61
2023/03/29 09:34:17;;;;;;;31.30;7.78;;;;;;;3.98;72.48;100729.44;4940221;28;20118;-61
2023/03/29 09:36:55;;;;;;;27.08;7.80;;;;;;;4.15;72.46;100769.41;4947021;28;20044;-58
2023/03/29 09:39:29;;;;;;;20.73;7.43;;;;;;;4.12;73.12;100769.38;4937548;28;20055;-59
2023/03/29 09:42:06;;;;;;;29.15;7.63;;;;;;;3.91;72.92;100740.50;4946529;28;20138;-60
2023/03/29 09:44:42;;;;;;;26.45;7.70;;;;;;;4.03;72.96;100769.19;4935780;28;20108;-61
2023/03/29 09:47:27;;;;;;;24.05;8.90;;;;;;;3.74;73.54;100738.47;4938358;28;20055;-59
2023/03/29 09:50:06;;;;;;;26.20;7.90;;;;;;;3.88;73.78;100764.59;4933995;28;20105;-59
2023/03/29 09:52:56;;;;;;;29.98;7.25;;;;;;;3.97;74.07;100784.56;4924441;28;20168;-60
2023/03/29 09:55:32;;;;;;;27.40;7.60;;;;;;;3.91;73.77;100768.97;4947882;28;20698;-60
2023/03/29 09:58:15;;;;;;;32.30;8.13;;;;;;;3.43;74.09;100699.13;4944302;28;20091;-59
2023/03/29 10:00:45;;;;;;;20.55;8.40;;;;;;;3.62;74.03;100738.25;4936532;28;20047;-60
2023/03/29 10:03:21;;;;;;;25.45;7.60;;;;;;;3.82;74.70;100780.88;4946550;28;20090;-59
2023/03/29 10:05:53;;;;;;;31.50;8.30;;;;;;;3.58;74.95;100754.53;4947681;28;20113;-61
2023/03/29 10:08:28;;;;;;;33.40;8.05;;;;;;;3.67;75.71;100775.41;4936378;28;20595;-60
2023/03/29 10:11:04;;;;;;;31.48;9.13;;;;;;;3.77;75.67;100781.59;4944959;28;20144;-59
2023/03/29 10:13:36;;;;;;;28.83;7.80;;;;;;;3.81;75.55;100789.44;4942267;28;20045;-60
2023/03/29 10:16:09;;;;;;;26.73;7.95;;;;;;;3.81;75.71;100788.59;4946119;28;20039;-60
2023/03/29 10:18:42;;;;;;;39.92;8.30;;;;;;;3.73;75.79;100780.69;4945479;28;20051;-60
2023/03/29 10:21:15;;;;;;;34.45;9.07;;;;;;;3.72;76.25;100794.47;4946570;28;20048;-58
2023/03/29 10:23:46;;;;;;;27.33;8.25;;;;;;;3.69;76.64;100796.97;4936035;28;20050;-58
2023/03/29 10:26:26;;;;;;;32.67;7.95;;;;;;;3.67;76.83;100796.09;4945755;28;20051;-59
2023/03/29 10:29:00;;;;;;;33.78;8.48;;;;;;;3.57;77.02;100779.53;4935052;28;20059;-59
2023/03/29 10:31:32;;;;;;;29.95;8.60;;;;;;;3.39;76.99;100769.66;4946482;28;20374;-58
2023/03/29 10:34:06;;;;;;;28.60;8.00;;;;;;;3.32;77.20;100762.63;4943433;28;20544;-60
2023/03/29 10:36:54;;;;;;;29.65;8.63;;;;;;;3.53;77.36;100797.50;4945537;28;20142;-60
2023/03/29 10:39:33;;;;;;;28.02;8.85;;;;;;;3.55;77.18;100801.00;4937869;27;20040;-58
2023/03/29 10:42:09;;;;;;;29.20;8.02;;;;;;;3.53;77.45;100797.50;4946016;27;20053;-60
2023/03/29 10:44:42;;;;;;;21.52;7.90;;;;;;;3.50;77.58;100802.63;4948782;27;20094;-58
2023/03/29 10:47:18;;;;;;;21.80;8.02;;;;;;;3.45;77.67;100785.28;4950804;27;20055;-60
2023/03/29 10:49:58;;;;;;;30.10;8.55;;;;;;;3.37;77.69;100775.63;4940198;27;20667;-60
2023/03/29 10:52:34;;;;;;;39.28;8.13;;;;;;;3.52;77.69;100806.06;4939196;27;20063;-61
2023/03/29 10:55:14;;;;;;;26.88;7.72;;;;;;;3.48;78.00;100809.47;4940277;27;20491;-59
2023/03/29 10:57:56;;;;;;;33.28;8.20;;;;;;;3.43;78.13;100797.31;4936575;27;20066;-61
2023/03/29 11:00:36;;;;;;;26.73;8.10;;;;;;;3.40;77.95;100796.38;4938569;27;20039;-61
2023/03/29 11:03:18;;;;;;;;;;;;;;;3.42;78.49;100800.75;4939105;27;20545;-61
2023/03/29 11:06:13;;;;;;;35.05;9.27;;;;;;;3.42;78.44;100795.56;4939095;27;19934;-60
2023/03/29 11:12:27;;;;;;;32.85;8.65;;;;;;;3.35;78.56;100806.59;4931938;27;20044;-60
2023/03/29 11:15:36;;;;;;;25.30;8.05;;;;;;;3.32;78.63;100814.31;4938278;27;20063;-60
2023/03/29 11:18:57;;;;;;;43.88;9.30;;;;;;;3.26;79.23;100802.94;4937499;27;20047;-61
2023/03/29 11:21:42;;;;;;;25.95;8.43;;;;;;;2.95;79.33;100772.16;4893272;27;20048;-61
2023/03/29 11:24:49;;;;;;;23.25;8.15;;;;;;;3.19;79.75;100817.44;4938571;27;20127;-60
2023/03/29 11:27:38;;;;;;;26.00;7.95;;;;;;;3.20;80.26;100814.03;4904151;27;20056;-60
2023/03/29 11:30:21;;;;;;;26.65;7.72;;;;;;;3.00;80.61;100788.63;4938576;27;20356;-61
2023/03/29 11:33:04;;;;;;;27.52;8.38;;;;;;;3.01;80.07;100792.94;4938744;27;20035;-61
2023/03/29 11:35:52;;;;;;;33.63;8.80;;;;;;;3.10;80.71;100806.91;4937789;27;20142;-61
2023/03/29 11:38:40;;;;;;;24.73;8.48;;;;;;;3.09;81.01;100808.59;4937508;27;20041;-60
2023/03/29 11:41:19;;;;;;;27.75;7.50;;;;;;;3.01;80.94;100777.44;4934573;27;20057;-60
2023/03/29 11:43:55;;;;;;;32.60;8.57;;;;;;;2.59;81.25;100712.81;4948265;27;20054;-60
2023/03/29 11:46:36;;;;;;;26.35;9.05;;;;;;;3.05;81.23;100793.91;4938679;27;20047;-61
2023/03/29 11:49:15;;;;;;;28.52;9.07;;;;;;;3.05;81.47;100798.19;4939353;27;20131;-61
2023/03/29 11:51:49;;;;;;;30.02;8.77;;;;;;;2.92;81.98;100803.06;4937558;27;20120;-58
2023/03/29 11:54:26;;;;;;;30.63;8.43;;;;;;;2.93;81.69;100794.47;4948283;27;20047;-61
2023/03/29 11:57:06;;;;;;;27.90;9.70;;;;;;;2.86;81.66;100802.91;4938142;27;20075;-61
2023/03/29 11:59:41;;;;;;;27.58;8.60;;;;;;;2.81;81.92;100804.50;4938238;27;20363;-61
2023/03/29 12:02:23;;;;;;;35.53;8.18;;;;;;;2.76;82.14;100804.41;4948831;27;20058;-60
2023/03/29 12:05:06;;;;;;;29.98;8.23;;;;;;;2.77;82.57;100803.59;4932182;27;20048;-59